SWA215 KRDU-KDCA
Flight info
| Callsign | SWA215 |
|---|---|
| Flight time | 0h 43m |
| Altitude | 29000 |
| Route | BEXGO5 BOUSY WAVES CAPSS4 |
| Aircraft | B738/M-SDE2E3FGHIRWXY/LB1 |
Departure
| Time | 2026-04-23 04:01 |
|---|---|
| Airport | Raleigh-Durham International Airport (KRDU) |
Arrival
| Time | 2026-04-23 04:45 |
|---|---|
| Airport | Ronald Reagan Washington National Airport (KDCA) |
| Time | Latitude | Longitude | Altitude | Speed | Heading |
|---|---|---|---|---|---|
| 2026-04-23 03:53 | 35.87422 | -78.78910 | 435 ft | 0 kts | 343° |
| 2026-04-23 03:55 | 35.87419 | -78.78908 | 435 ft | 2 kts | 342° |
| 2026-04-23 03:55 | 35.87402 | -78.78899 | 418 ft | 3 kts | 319° |
| 2026-04-23 03:55 | 35.87388 | -78.78882 | 426 ft | 3 kts | 313° |
| 2026-04-23 03:56 | 35.87375 | -78.78867 | 421 ft | 3 kts | 325° |
| 2026-04-23 03:56 | 35.87358 | -78.78855 | 421 ft | 3 kts | 348° |
| 2026-04-23 03:56 | 35.87339 | -78.78855 | 429 ft | 3 kts | 21° |
| 2026-04-23 03:56 | 35.87322 | -78.78867 | 433 ft | 3 kts | 43° |
| 2026-04-23 03:57 | 35.87315 | -78.78876 | 421 ft | 1 kts | 45° |
| 2026-04-23 03:57 | 35.87313 | -78.78877 | 421 ft | 0 kts | 45° |
| 2026-04-23 03:58 | 35.87333 | -78.78853 | 428 ft | 7 kts | 45° |
| 2026-04-23 03:58 | 35.87368 | -78.78810 | 425 ft | 7 kts | 45° |
| 2026-04-23 03:58 | 35.87401 | -78.78769 | 435 ft | 7 kts | 45° |
| 2026-04-23 03:58 | 35.87456 | -78.78702 | 435 ft | 26 kts | 45° |
| 2026-04-23 03:59 | 35.87621 | -78.78496 | 435 ft | 35 kts | 45° |
| 2026-04-23 03:59 | 35.87788 | -78.78290 | 428 ft | 33 kts | 45° |
| 2026-04-23 03:59 | 35.87943 | -78.78100 | 426 ft | 30 kts | 45° |
| 2026-04-23 03:59 | 35.88010 | -78.78014 | 430 ft | 1 kts | 66° |
| 2026-04-23 04:00 | 35.87973 | -78.77996 | 429 ft | 15 kts | 172° |
| 2026-04-23 04:00 | 35.87868 | -78.78009 | 432 ft | 15 kts | 216° |
| 2026-04-23 04:00 | 35.87772 | -78.78120 | 426 ft | 41 kts | 225° |
| 2026-04-23 04:00 | 35.87353 | -78.78647 | 430 ft | 129 kts | 225° |
| 2026-04-23 04:01 | 35.86544 | -78.79603 | 683 ft | 180 kts | 221° |
| 2026-04-23 04:01 | 35.85565 | -78.80578 | 1800 ft | 177 kts | 219° |
| 2026-04-23 04:01 | 35.84570 | -78.81493 | 2823 ft | 189 kts | 219° |
| 2026-04-23 04:01 | 35.83643 | -78.82770 | 3141 ft | 214 kts | 251° |
| 2026-04-23 04:02 | 35.83640 | -78.84622 | 3479 ft | 227 kts | 293° |
| 2026-04-23 04:02 | 35.84707 | -78.86141 | 3778 ft | 251 kts | 330° |
| 2026-04-23 04:02 | 35.86453 | -78.86538 | 4483 ft | 264 kts | 2° |
| 2026-04-23 04:02 | 35.88263 | -78.86174 | 5476 ft | 265 kts | 12° |
| 2026-04-23 04:03 | 35.89915 | -78.85081 | 6310 ft | 276 kts | 35° |
| 2026-04-23 04:03 | 35.91344 | -78.83465 | 7147 ft | 281 kts | 41° |
| 2026-04-23 04:03 | 35.92712 | -78.81755 | 7963 ft | 284 kts | 41° |
| 2026-04-23 04:03 | 35.94105 | -78.80010 | 8813 ft | 287 kts | 41° |
| 2026-04-23 04:04 | 35.95527 | -78.78266 | 9678 ft | 289 kts | 40° |
| 2026-04-23 04:04 | 35.96979 | -78.76520 | 10404 ft | 296 kts | 40° |
| 2026-04-23 04:04 | 35.98527 | -78.74693 | 10622 ft | 320 kts | 40° |
| 2026-04-23 04:04 | 36.00209 | -78.72732 | 10814 ft | 344 kts | 40° |
| 2026-04-23 04:05 | 36.02007 | -78.70648 | 11012 ft | 365 kts | 40° |
| 2026-04-23 04:05 | 36.03886 | -78.68472 | 11532 ft | 374 kts | 40° |
| 2026-04-23 04:05 | 36.05796 | -78.66263 | 12235 ft | 377 kts | 40° |
| 2026-04-23 04:05 | 36.07713 | -78.64047 | 12970 ft | 379 kts | 40° |
| 2026-04-23 04:06 | 36.09650 | -78.61810 | 13686 ft | 383 kts | 40° |
| 2026-04-23 04:06 | 36.11605 | -78.59554 | 14350 ft | 386 kts | 40° |
| 2026-04-23 04:06 | 36.13544 | -78.57316 | 15018 ft | 388 kts | 40° |
| 2026-04-23 04:06 | 36.15521 | -78.55032 | 15670 ft | 390 kts | 40° |
| 2026-04-23 04:07 | 36.17512 | -78.52731 | 16302 ft | 393 kts | 40° |
| 2026-04-23 04:07 | 36.19516 | -78.50413 | 16916 ft | 396 kts | 40° |
| 2026-04-23 04:07 | 36.21534 | -78.48077 | 17537 ft | 398 kts | 40° |
| 2026-04-23 04:07 | 36.23565 | -78.45725 | 18152 ft | 401 kts | 40° |
| 2026-04-23 04:08 | 36.25609 | -78.43357 | 18712 ft | 403 kts | 40° |
| 2026-04-23 04:08 | 36.27673 | -78.40983 | 19199 ft | 406 kts | 38° |
| 2026-04-23 04:08 | 36.29866 | -78.38773 | 19684 ft | 408 kts | 34° |
| 2026-04-23 04:08 | 36.32162 | -78.36665 | 20174 ft | 410 kts | 33° |
| 2026-04-23 04:09 | 36.34455 | -78.34608 | 20625 ft | 414 kts | 33° |
| 2026-04-23 04:09 | 36.36792 | -78.32499 | 21048 ft | 417 kts | 33° |
| 2026-04-23 04:09 | 36.39131 | -78.30359 | 21100 ft | 421 kts | 34° |
| 2026-04-23 04:09 | 36.41499 | -78.28167 | 21116 ft | 429 kts | 34° |
| 2026-04-23 04:10 | 36.43901 | -78.25926 | 21121 ft | 433 kts | 34° |
| 2026-04-23 04:10 | 36.46303 | -78.23678 | 21102 ft | 431 kts | 34° |
| 2026-04-23 04:10 | 36.48698 | -78.21438 | 21117 ft | 431 kts | 34° |
| 2026-04-23 04:10 | 36.51088 | -78.19199 | 21134 ft | 430 kts | 34° |
| 2026-04-23 04:11 | 36.53474 | -78.16954 | 21134 ft | 430 kts | 34° |
| 2026-04-23 04:11 | 36.55858 | -78.14704 | 21142 ft | 430 kts | 34° |
| 2026-04-23 04:11 | 36.58237 | -78.12456 | 21151 ft | 430 kts | 34° |
| 2026-04-23 04:11 | 36.60617 | -78.10205 | 21157 ft | 430 kts | 34° |
| 2026-04-23 04:12 | 36.63001 | -78.07949 | 21157 ft | 430 kts | 34° |
| 2026-04-23 04:12 | 36.65382 | -78.05694 | 21158 ft | 430 kts | 34° |
| 2026-04-23 04:12 | 36.67775 | -78.03427 | 21157 ft | 431 kts | 34° |
| 2026-04-23 04:12 | 36.70162 | -78.01163 | 21158 ft | 431 kts | 34° |
| 2026-04-23 04:13 | 36.72553 | -77.98895 | 21158 ft | 431 kts | 34° |
| 2026-04-23 04:13 | 36.74938 | -77.96629 | 21155 ft | 431 kts | 34° |
| 2026-04-23 04:13 | 36.77328 | -77.94358 | 21146 ft | 431 kts | 34° |
| 2026-04-23 04:13 | 36.79715 | -77.92088 | 21101 ft | 431 kts | 34° |
| 2026-04-23 04:14 | 36.82125 | -77.89861 | 21095 ft | 430 kts | 30° |
| 2026-04-23 04:14 | 36.84745 | -77.88101 | 21113 ft | 428 kts | 23° |
| 2026-04-23 04:14 | 36.87479 | -77.86533 | 21110 ft | 436 kts | 21° |
| 2026-04-23 04:14 | 36.90242 | -77.85003 | 21105 ft | 442 kts | 21° |
| 2026-04-23 04:15 | 36.93052 | -77.83441 | 21089 ft | 440 kts | 21° |
| 2026-04-23 04:15 | 36.95837 | -77.81868 | 21076 ft | 439 kts | 22° |
| 2026-04-23 04:15 | 37.01371 | -77.78674 | 21084 ft | 438 kts | 22° |
| 2026-04-23 04:16 | 37.04130 | -77.77062 | 21081 ft | 438 kts | 22° |
| 2026-04-23 04:16 | 37.06889 | -77.75444 | 21083 ft | 438 kts | 22° |
| 2026-04-23 04:16 | 37.09653 | -77.73820 | 21082 ft | 439 kts | 22° |
| 2026-04-23 04:16 | 37.12429 | -77.72187 | 21084 ft | 440 kts | 22° |
| 2026-04-23 04:17 | 37.15198 | -77.70558 | 21080 ft | 440 kts | 22° |
| 2026-04-23 04:17 | 37.17977 | -77.68921 | 21084 ft | 441 kts | 22° |
| 2026-04-23 04:17 | 37.20754 | -77.67286 | 21078 ft | 441 kts | 22° |
| 2026-04-23 04:17 | 37.23531 | -77.65649 | 21089 ft | 441 kts | 22° |
| 2026-04-23 04:18 | 37.26313 | -77.64008 | 21089 ft | 441 kts | 22° |
| 2026-04-23 04:18 | 37.29097 | -77.62364 | 21075 ft | 442 kts | 22° |
| 2026-04-23 04:18 | 37.31843 | -77.60742 | 21075 ft | 441 kts | 22° |
| 2026-04-23 04:18 | 37.34626 | -77.59096 | 21077 ft | 441 kts | 22° |
| 2026-04-23 04:19 | 37.37405 | -77.57451 | 21088 ft | 441 kts | 22° |
| 2026-04-23 04:19 | 37.40184 | -77.55805 | 21087 ft | 441 kts | 22° |
| 2026-04-23 04:19 | 37.42959 | -77.54160 | 21080 ft | 441 kts | 22° |
| 2026-04-23 04:19 | 37.45737 | -77.52512 | 21089 ft | 441 kts | 22° |
| 2026-04-23 04:20 | 37.48508 | -77.50866 | 21081 ft | 441 kts | 22° |
| 2026-04-23 04:20 | 37.51281 | -77.49218 | 21075 ft | 441 kts | 22° |
| 2026-04-23 04:20 | 37.54059 | -77.47565 | 21068 ft | 440 kts | 22° |
| 2026-04-23 04:20 | 37.56830 | -77.45916 | 21064 ft | 440 kts | 22° |
| 2026-04-23 04:21 | 37.59636 | -77.44369 | 21075 ft | 438 kts | 16° |
| 2026-04-23 04:21 | 37.62567 | -77.43383 | 21089 ft | 435 kts | 10° |
| 2026-04-23 04:21 | 37.65488 | -77.42575 | 21074 ft | 421 kts | 9° |
| 2026-04-23 04:21 | 37.68281 | -77.41795 | 21068 ft | 401 kts | 10° |
| 2026-04-23 04:22 | 37.70940 | -77.41013 | 21062 ft | 383 kts | 10° |
| 2026-04-23 04:22 | 37.73443 | -77.40246 | 21067 ft | 367 kts | 11° |
| 2026-04-23 04:22 | 37.75903 | -77.39484 | 20904 ft | 363 kts | 11° |
| 2026-04-23 04:22 | 37.78353 | -77.38725 | 20547 ft | 360 kts | 11° |
| 2026-04-23 04:23 | 37.80776 | -77.37975 | 20123 ft | 357 kts | 11° |
| 2026-04-23 04:23 | 37.83179 | -77.37233 | 19703 ft | 354 kts | 11° |
| 2026-04-23 04:23 | 37.85570 | -77.36493 | 19294 ft | 352 kts | 11° |
| 2026-04-23 04:23 | 37.87944 | -77.35758 | 18880 ft | 350 kts | 11° |
| 2026-04-23 04:24 | 37.90306 | -77.35027 | 18446 ft | 349 kts | 11° |
| 2026-04-23 04:24 | 37.92666 | -77.34301 | 17952 ft | 349 kts | 11° |
| 2026-04-23 04:24 | 37.95019 | -77.33578 | 17504 ft | 346 kts | 11° |
| 2026-04-23 04:24 | 37.97354 | -77.32860 | 17082 ft | 344 kts | 11° |
| 2026-04-23 04:25 | 37.99673 | -77.32146 | 16656 ft | 341 kts | 11° |
| 2026-04-23 04:25 | 38.01974 | -77.31437 | 16246 ft | 339 kts | 11° |
| 2026-04-23 04:25 | 38.04232 | -77.30740 | 15849 ft | 337 kts | 11° |
| 2026-04-23 04:25 | 38.06503 | -77.30040 | 15451 ft | 335 kts | 11° |
| 2026-04-23 04:26 | 38.08762 | -77.29338 | 15060 ft | 333 kts | 11° |
| 2026-04-23 04:26 | 38.11013 | -77.28631 | 14666 ft | 332 kts | 11° |
| 2026-04-23 04:26 | 38.13256 | -77.27925 | 14273 ft | 330 kts | 11° |
| 2026-04-23 04:26 | 38.15484 | -77.27224 | 13885 ft | 329 kts | 11° |
| 2026-04-23 04:27 | 38.17705 | -77.26525 | 13450 ft | 328 kts | 11° |
| 2026-04-23 04:27 | 38.19910 | -77.25831 | 13038 ft | 326 kts | 11° |
| 2026-04-23 04:27 | 38.22087 | -77.25077 | 12785 ft | 323 kts | 13° |
| 2026-04-23 04:28 | 38.26368 | -77.23430 | 12209 ft | 321 kts | 13° |
| 2026-04-23 04:28 | 38.28504 | -77.22606 | 11987 ft | 322 kts | 13° |
| 2026-04-23 04:28 | 38.30653 | -77.21784 | 11741 ft | 324 kts | 13° |
| 2026-04-23 04:28 | 38.32785 | -77.20974 | 11492 ft | 322 kts | 13° |
| 2026-04-23 04:29 | 38.34926 | -77.20162 | 11238 ft | 320 kts | 13° |
| 2026-04-23 04:29 | 38.37054 | -77.19354 | 11011 ft | 317 kts | 13° |
| 2026-04-23 04:29 | 38.39157 | -77.18548 | 10918 ft | 316 kts | 13° |
| 2026-04-23 04:29 | 38.41267 | -77.17735 | 10817 ft | 318 kts | 13° |
| 2026-04-23 04:30 | 38.43383 | -77.16918 | 10712 ft | 317 kts | 13° |
| 2026-04-23 04:30 | 38.45494 | -77.16102 | 10604 ft | 316 kts | 13° |
| 2026-04-23 04:30 | 38.47593 | -77.15290 | 10503 ft | 315 kts | 13° |
| 2026-04-23 04:30 | 38.49686 | -77.14480 | 10401 ft | 312 kts | 13° |
| 2026-04-23 04:31 | 38.51735 | -77.13686 | 10289 ft | 302 kts | 13° |
| 2026-04-23 04:31 | 38.53717 | -77.12917 | 10189 ft | 292 kts | 12° |
| 2026-04-23 04:31 | 38.55625 | -77.12177 | 10091 ft | 282 kts | 12° |
| 2026-04-23 04:31 | 38.57471 | -77.11461 | 9958 ft | 273 kts | 12° |
| 2026-04-23 04:32 | 38.59283 | -77.10764 | 9670 ft | 271 kts | 12° |
| 2026-04-23 04:32 | 38.61079 | -77.10075 | 9393 ft | 268 kts | 12° |
| 2026-04-23 04:32 | 38.62257 | -77.09622 | 9216 ft | 266 kts | 12° |
| 2026-04-23 04:32 | 38.64025 | -77.08941 | 8955 ft | 264 kts | 12° |
| 2026-04-23 04:33 | 38.65780 | -77.08265 | 8687 ft | 263 kts | 12° |
| 2026-04-23 04:33 | 38.67525 | -77.07592 | 8425 ft | 261 kts | 12° |
| 2026-04-23 04:33 | 38.69272 | -77.06993 | 8164 ft | 258 kts | 4° |
| 2026-04-23 04:33 | 38.71617 | -77.06726 | 7826 ft | 254 kts | 359° |
| 2026-04-23 04:34 | 38.72813 | -77.06634 | 7649 ft | 254 kts | 359° |
| 2026-04-23 04:34 | 38.74578 | -77.06486 | 7404 ft | 254 kts | 359° |
| 2026-04-23 04:34 | 38.76330 | -77.06514 | 7147 ft | 250 kts | 343° |
| 2026-04-23 04:34 | 38.77912 | -77.07338 | 6924 ft | 244 kts | 327° |
| 2026-04-23 04:35 | 38.79344 | -77.08496 | 6683 ft | 244 kts | 324° |
| 2026-04-23 04:35 | 38.80765 | -77.09697 | 6431 ft | 245 kts | 324° |
| 2026-04-23 04:35 | 38.82195 | -77.10896 | 6174 ft | 247 kts | 324° |
| 2026-04-23 04:35 | 38.83588 | -77.12139 | 5906 ft | 247 kts | 317° |
| 2026-04-23 04:36 | 38.84844 | -77.13645 | 5644 ft | 247 kts | 313° |
| 2026-04-23 04:36 | 38.86056 | -77.15207 | 5385 ft | 247 kts | 312° |
| 2026-04-23 04:36 | 38.87272 | -77.16770 | 5133 ft | 247 kts | 313° |
| 2026-04-23 04:36 | 38.88496 | -77.18323 | 4870 ft | 247 kts | 313° |
| 2026-04-23 04:37 | 38.89725 | -77.19866 | 4594 ft | 247 kts | 313° |
| 2026-04-23 04:37 | 38.90954 | -77.21402 | 4332 ft | 246 kts | 313° |
| 2026-04-23 04:37 | 38.92178 | -77.22930 | 4096 ft | 244 kts | 313° |
| 2026-04-23 04:37 | 38.93388 | -77.24447 | 4049 ft | 242 kts | 311° |
| 2026-04-23 04:38 | 38.94537 | -77.25963 | 4010 ft | 232 kts | 315° |
| 2026-04-23 04:38 | 38.95941 | -77.26898 | 3986 ft | 229 kts | 345° |
| 2026-04-23 04:38 | 38.97521 | -77.26725 | 3818 ft | 233 kts | 18° |
| 2026-04-23 04:38 | 38.98865 | -77.25553 | 3637 ft | 235 kts | 38° |
| 2026-04-23 04:39 | 39.00060 | -77.24136 | 3491 ft | 234 kts | 40° |
| 2026-04-23 04:39 | 39.01050 | -77.22467 | 3283 ft | 239 kts | 68° |
| 2026-04-23 04:39 | 39.01389 | -77.20421 | 3092 ft | 229 kts | 84° |
| 2026-04-23 04:39 | 39.01545 | -77.18418 | 2885 ft | 220 kts | 93° |
| 2026-04-23 04:40 | 39.01125 | -77.16644 | 2676 ft | 199 kts | 133° |
| 2026-04-23 04:40 | 39.00208 | -77.15507 | 2623 ft | 176 kts | 148° |
| 2026-04-23 04:40 | 38.99204 | -77.14868 | 2612 ft | 152 kts | 179° |
| 2026-04-23 04:40 | 38.98110 | -77.14580 | 2666 ft | 160 kts | 174° |
| 2026-04-23 04:41 | 38.97070 | -77.14229 | 2639 ft | 152 kts | 174° |
| 2026-04-23 04:41 | 38.96049 | -77.13970 | 2591 ft | 149 kts | 172° |
| 2026-04-23 04:41 | 38.95123 | -77.13319 | 2617 ft | 153 kts | 158° |
| 2026-04-23 04:41 | 38.94200 | -77.12652 | 2601 ft | 151 kts | 160° |
| 2026-04-23 04:42 | 38.93283 | -77.12006 | 2591 ft | 149 kts | 159° |
| 2026-04-23 04:42 | 38.92386 | -77.11373 | 2301 ft | 146 kts | 160° |
| 2026-04-23 04:42 | 38.91530 | -77.10704 | 1862 ft | 144 kts | 153° |
| 2026-04-23 04:42 | 38.90831 | -77.09766 | 1434 ft | 143 kts | 128° |
| 2026-04-23 04:43 | 38.90461 | -77.08544 | 1303 ft | 160 kts | 110° |
| 2026-04-23 04:43 | 38.90130 | -77.07188 | 1010 ft | 152 kts | 123° |
| 2026-04-23 04:43 | 38.89463 | -77.06214 | 851 ft | 143 kts | 140° |
| 2026-04-23 04:43 | 38.88756 | -77.05291 | 680 ft | 145 kts | 137° |
| 2026-04-23 04:44 | 38.88022 | -77.04393 | 476 ft | 147 kts | 147° |
| 2026-04-23 04:44 | 38.87101 | -77.03938 | 260 ft | 141 kts | 177° |
| 2026-04-23 04:44 | 38.86141 | -77.03875 | 64 ft | 141 kts | 176° |
| 2026-04-23 04:44 | 38.85174 | -77.03783 | 36 ft | 138 kts | 176° |
| 2026-04-23 04:45 | 38.84477 | -77.03718 | 19 ft | 34 kts | 184° |
| 2026-04-23 04:45 | 38.84419 | -77.03829 | 21 ft | 13 kts | 342° |
| 2026-04-23 04:45 | 38.84508 | -77.03843 | 20 ft | 12 kts | 355° |
| 2026-04-23 04:45 | 38.84513 | -77.03844 | 19 ft | 0 kts | 355° |
| 2026-04-23 04:46 | 38.84514 | -77.03844 | 19 ft | 3 kts | 355° |
| 2026-04-23 04:46 | 38.84816 | -77.03696 | 20 ft | 95 kts | 28° |
| 2026-04-23 04:47 | 38.85626 | -77.03090 | 117 ft | 164 kts | 34° |
| 2026-04-23 04:47 | 38.86613 | -77.02216 | 845 ft | 183 kts | 38° |
| 2026-04-23 04:47 | 38.87789 | -77.01171 | 1193 ft | 232 kts | 24° |
| 2026-04-23 04:47 | 38.89437 | -77.01311 | 1388 ft | 260 kts | 319° |
| 2026-04-23 04:48 | 38.90495 | -77.02845 | 3351 ft | 208 kts | 304° |
| 2026-04-23 04:48 | 38.90563 | -77.02943 | 3477 ft | 208 kts | 306° |